sensor_id;sensor_type;location;lat;lon;timestamp;P1;durP1;ratioP1;P2;durP2;ratioP2
48076;SDS011;33854;57.708;12.008;2022-10-31T00:01:18;61.05;;;27.55;;
48076;SDS011;33854;57.708;12.008;2022-10-31T00:03:47;62.22;;;28.10;;
48076;SDS011;33854;57.708;12.008;2022-10-31T00:06:12;61.10;;;27.90;;
48076;SDS011;33854;57.708;12.008;2022-10-31T00:08:38;56.23;;;26.57;;
48076;SDS011;33854;57.708;12.008;2022-10-31T00:11:03;61.77;;;27.57;;
48076;SDS011;33854;57.708;12.008;2022-10-31T00:13:33;53.28;;;25.25;;
48076;SDS011;33854;57.708;12.008;2022-10-31T00:15:58;52.97;;;25.07;;
48076;SDS011;33854;57.708;12.008;2022-10-31T00:18:23;47.20;;;22.80;;
48076;SDS011;33854;57.708;12.008;2022-10-31T00:20:49;44.10;;;24.57;;
48076;SDS011;33854;57.708;12.008;2022-10-31T00:23:23;52.17;;;24.40;;
48076;SDS011;33854;57.708;12.008;2022-10-31T00:25:48;47.60;;;24.13;;
48076;SDS011;33854;57.708;12.008;2022-10-31T00:28:14;53.67;;;24.70;;
48076;SDS011;33854;57.708;12.008;2022-10-31T00:30:39;45.93;;;23.50;;
48076;SDS011;33854;57.708;12.008;2022-10-31T00:33:04;49.60;;;22.73;;
48076;SDS011;33854;57.708;12.008;2022-10-31T00:35:30;56.60;;;25.93;;
48076;SDS011;33854;57.708;12.008;2022-10-31T00:37:55;54.57;;;24.10;;
48076;SDS011;33854;57.708;12.008;2022-10-31T00:40:21;58.53;;;25.13;;
48076;SDS011;33854;57.708;12.008;2022-10-31T00:42:46;57.37;;;25.33;;
48076;SDS011;33854;57.708;12.008;2022-10-31T00:45:11;58.10;;;25.43;;
48076;SDS011;33854;57.708;12.008;2022-10-31T00:47:37;55.13;;;27.07;;
48076;SDS011;33854;57.708;12.008;2022-10-31T00:50:04;61.83;;;28.40;;
48076;SDS011;33854;57.708;12.008;2022-10-31T00:52:30;64.50;;;26.58;;
48076;SDS011;33854;57.708;12.008;2022-10-31T00:54:55;63.67;;;27.67;;
48076;SDS011;33854;57.708;12.008;2022-10-31T00:57:21;62.50;;;26.80;;
48076;SDS011;33854;57.708;12.008;2022-10-31T00:59:46;66.00;;;29.27;;
48076;SDS011;33854;57.708;12.008;2022-10-31T01:02:12;66.67;;;28.67;;
48076;SDS011;33854;57.708;12.008;2022-10-31T01:04:37;68.80;;;27.87;;
48076;SDS011;33854;57.708;12.008;2022-10-31T01:07:02;63.77;;;27.00;;
48076;SDS011;33854;57.708;12.008;2022-10-31T01:09:28;69.07;;;29.43;;
48076;SDS011;33854;57.708;12.008;2022-10-31T01:11:53;65.23;;;28.83;;
48076;SDS011;33854;57.708;12.008;2022-10-31T01:14:18;68.40;;;28.43;;
48076;SDS011;33854;57.708;12.008;2022-10-31T01:16:44;65.60;;;27.40;;
48076;SDS011;33854;57.708;12.008;2022-10-31T01:19:09;66.10;;;28.47;;
48076;SDS011;33854;57.708;12.008;2022-10-31T01:21:34;67.13;;;29.17;;
48076;SDS011;33854;57.708;12.008;2022-10-31T01:24:00;74.73;;;30.70;;
48076;SDS011;33854;57.708;12.008;2022-10-31T01:26:28;67.10;;;29.05;;
48076;SDS011;33854;57.708;12.008;2022-10-31T01:31:23;70.63;;;29.10;;
48076;SDS011;33854;57.708;12.008;2022-10-31T01:33:51;62.38;;;29.23;;
48076;SDS011;33854;57.708;12.008;2022-10-31T01:36:21;67.53;;;29.60;;
48076;SDS011;33854;57.708;12.008;2022-10-31T01:38:52;68.88;;;29.15;;
48076;SDS011;33854;57.708;12.008;2022-10-31T01:41:20;76.22;;;28.73;;
48076;SDS011;33854;57.708;12.008;2022-10-31T01:43:58;69.43;;;30.60;;
48076;SDS011;33854;57.708;12.008;2022-10-31T01:46:24;77.57;;;28.50;;
48076;SDS011;33854;57.708;12.008;2022-10-31T01:48:54;67.95;;;28.23;;
48076;SDS011;33854;57.708;12.008;2022-10-31T01:51:21;69.22;;;28.48;;
48076;SDS011;33854;57.708;12.008;2022-10-31T01:53:51;83.78;;;30.95;;
48076;SDS011;33854;57.708;12.008;2022-10-31T01:56:23;68.65;;;30.55;;
48076;SDS011;33854;57.708;12.008;2022-10-31T01:58:49;76.20;;;29.23;;
48076;SDS011;33854;57.708;12.008;2022-10-31T02:01:15;65.22;;;29.27;;
48076;SDS011;33854;57.708;12.008;2022-10-31T02:03:42;66.97;;;29.48;;
48076;SDS011;33854;57.708;12.008;2022-10-31T02:06:10;67.78;;;29.60;;
48076;SDS011;33854;57.708;12.008;2022-10-31T02:08:54;69.50;;;30.48;;
48076;SDS011;33854;57.708;12.008;2022-10-31T02:11:22;62.95;;;28.50;;
48076;SDS011;33854;57.708;12.008;2022-10-31T02:13:47;75.00;;;29.10;;
48076;SDS011;33854;57.708;12.008;2022-10-31T02:16:13;67.13;;;28.37;;
48076;SDS011;33854;57.708;12.008;2022-10-31T02:18:38;72.97;;;29.03;;
48076;SDS011;33854;57.708;12.008;2022-10-31T02:21:10;66.90;;;27.63;;
48076;SDS011;33854;57.708;12.008;2022-10-31T02:24:00;77.10;;;31.10;;
48076;SDS011;33854;57.708;12.008;2022-10-31T02:32:19;81.50;;;31.77;;
48076;SDS011;33854;57.708;12.008;2022-10-31T02:35:24;85.30;;;33.60;;
48076;SDS011;33854;57.708;12.008;2022-10-31T02:38:01;78.57;;;33.85;;
48076;SDS011;33854;57.708;12.008;2022-10-31T02:40:35;83.25;;;32.22;;
48076;SDS011;33854;57.708;12.008;2022-10-31T02:45:44;84.07;;;32.78;;
48076;SDS011;33854;57.708;12.008;2022-10-31T02:48:19;77.25;;;31.08;;
48076;SDS011;33854;57.708;12.008;2022-10-31T02:51:01;75.67;;;31.57;;
48076;SDS011;33854;57.708;12.008;2022-10-31T02:53:34;80.60;;;30.27;;
48076;SDS011;33854;57.708;12.008;2022-10-31T02:58:42;82.13;;;31.23;;
48076;SDS011;33854;57.708;12.008;2022-10-31T03:09:25;76.70;;;29.30;;
48076;SDS011;33854;57.708;12.008;2022-10-31T03:11:58;78.28;;;29.02;;
48076;SDS011;33854;57.708;12.008;2022-10-31T03:14:38;66.27;;;29.23;;
48076;SDS011;33854;57.708;12.008;2022-10-31T03:17:09;67.75;;;27.80;;
48076;SDS011;33854;57.708;12.008;2022-10-31T03:19:43;61.58;;;28.77;;
48076;SDS011;33854;57.708;12.008;2022-10-31T03:24:58;68.55;;;29.52;;
48076;SDS011;33854;57.708;12.008;2022-10-31T03:27:27;72.85;;;31.20;;
48076;SDS011;33854;57.708;12.008;2022-10-31T03:29:57;82.32;;;29.65;;
48076;SDS011;33854;57.708;12.008;2022-10-31T03:32:27;72.88;;;30.20;;
48076;SDS011;33854;57.708;12.008;2022-10-31T03:34:57;73.57;;;30.27;;
48076;SDS011;33854;57.708;12.008;2022-10-31T03:37:27;78.88;;;29.55;;
48076;SDS011;33854;57.708;12.008;2022-10-31T03:39:54;70.15;;;30.70;;
48076;SDS011;33854;57.708;12.008;2022-10-31T03:42:23;74.70;;;32.30;;
48076;SDS011;33854;57.708;12.008;2022-10-31T03:44:52;79.68;;;32.03;;
48076;SDS011;33854;57.708;12.008;2022-10-31T03:47:21;82.22;;;31.60;;
48076;SDS011;33854;57.708;12.008;2022-10-31T03:49:46;70.95;;;28.48;;
48076;SDS011;33854;57.708;12.008;2022-10-31T03:55:10;68.78;;;28.80;;
48076;SDS011;33854;57.708;12.008;2022-10-31T04:00:22;74.47;;;28.88;;
48076;SDS011;33854;57.708;12.008;2022-10-31T04:03:05;71.80;;;29.73;;
48076;SDS011;33854;57.708;12.008;2022-10-31T04:05:34;69.25;;;28.48;;
48076;SDS011;33854;57.708;12.008;2022-10-31T04:08:02;64.13;;;27.77;;
48076;SDS011;33854;57.708;12.008;2022-10-31T04:10:32;70.43;;;29.83;;
48076;SDS011;33854;57.708;12.008;2022-10-31T04:13:04;64.72;;;26.48;;
48076;SDS011;33854;57.708;12.008;2022-10-31T04:15:32;68.28;;;27.52;;
48076;SDS011;33854;57.708;12.008;2022-10-31T04:17:59;60.55;;;27.02;;
48076;SDS011;33854;57.708;12.008;2022-10-31T04:20:32;65.18;;;26.40;;
48076;SDS011;33854;57.708;12.008;2022-10-31T04:23:02;66.40;;;28.40;;
48076;SDS011;33854;57.708;12.008;2022-10-31T04:25:28;65.20;;;27.27;;
48076;SDS011;33854;57.708;12.008;2022-10-31T04:27:54;69.53;;;28.33;;
48076;SDS011;33854;57.708;12.008;2022-10-31T04:30:20;70.37;;;28.77;;
48076;SDS011;33854;57.708;12.008;2022-10-31T04:32:45;71.00;;;27.27;;
48076;SDS011;33854;57.708;12.008;2022-10-31T04:35:11;71.20;;;27.17;;
48076;SDS011;33854;57.708;12.008;2022-10-31T04:37:36;81.03;;;27.83;;
48076;SDS011;33854;57.708;12.008;2022-10-31T04:40:02;70.97;;;27.30;;
48076;SDS011;33854;57.708;12.008;2022-10-31T04:42:29;69.15;;;28.00;;
48076;SDS011;33854;57.708;12.008;2022-10-31T04:44:55;72.03;;;28.00;;
48076;SDS011;33854;57.708;12.008;2022-10-31T04:47:20;75.90;;;28.37;;
48076;SDS011;33854;57.708;12.008;2022-10-31T04:49:45;83.60;;;30.17;;
48076;SDS011;33854;57.708;12.008;2022-10-31T04:52:11;73.23;;;28.07;;
48076;SDS011;33854;57.708;12.008;2022-10-31T04:54:37;79.45;;;29.40;;
48076;SDS011;33854;57.708;12.008;2022-10-31T04:57:02;80.63;;;31.13;;
48076;SDS011;33854;57.708;12.008;2022-10-31T04:59:28;76.80;;;28.50;;
48076;SDS011;33854;57.708;12.008;2022-10-31T05:01:53;71.23;;;28.87;;
48076;SDS011;33854;57.708;12.008;2022-10-31T05:04:19;73.57;;;28.73;;
48076;SDS011;33854;57.708;12.008;2022-10-31T05:06:44;63.60;;;26.23;;
48076;SDS011;33854;57.708;12.008;2022-10-31T05:09:09;76.20;;;28.13;;
48076;SDS011;33854;57.708;12.008;2022-10-31T05:11:35;79.80;;;27.73;;
48076;SDS011;33854;57.708;12.008;2022-10-31T05:14:00;66.13;;;25.13;;
48076;SDS011;33854;57.708;12.008;2022-10-31T05:16:25;75.40;;;27.13;;
48076;SDS011;33854;57.708;12.008;2022-10-31T05:18:51;80.30;;;28.53;;
48076;SDS011;33854;57.708;12.008;2022-10-31T05:21:16;68.47;;;28.20;;
48076;SDS011;33854;57.708;12.008;2022-10-31T05:23:41;78.47;;;26.70;;
48076;SDS011;33854;57.708;12.008;2022-10-31T05:26:07;69.33;;;27.13;;
48076;SDS011;33854;57.708;12.008;2022-10-31T05:28:32;69.83;;;26.17;;
48076;SDS011;33854;57.708;12.008;2022-10-31T05:30:57;66.90;;;26.17;;
48076;SDS011;33854;57.708;12.008;2022-10-31T05:33:23;65.40;;;22.53;;
48076;SDS011;33854;57.708;12.008;2022-10-31T05:35:48;64.50;;;24.57;;
48076;SDS011;33854;57.708;12.008;2022-10-31T05:38:13;60.77;;;23.47;;
48076;SDS011;33854;57.708;12.008;2022-10-31T05:40:39;68.53;;;25.20;;
48076;SDS011;33854;57.708;12.008;2022-10-31T05:43:04;58.67;;;23.43;;
48076;SDS011;33854;57.708;12.008;2022-10-31T05:45:29;53.27;;;22.10;;
48076;SDS011;33854;57.708;12.008;2022-10-31T05:47:56;52.20;;;20.73;;
48076;SDS011;33854;57.708;12.008;2022-10-31T05:50:22;53.30;;;22.38;;
48076;SDS011;33854;57.708;12.008;2022-10-31T05:55:25;46.42;;;19.65;;
48076;SDS011;33854;57.708;12.008;2022-10-31T05:57:51;45.60;;;18.92;;
48076;SDS011;33854;57.708;12.008;2022-10-31T06:00:17;47.75;;;20.45;;
48076;SDS011;33854;57.708;12.008;2022-10-31T06:02:43;53.40;;;20.67;;
48076;SDS011;33854;57.708;12.008;2022-10-31T06:05:08;49.23;;;19.57;;
48076;SDS011;33854;57.708;12.008;2022-10-31T06:07:34;40.07;;;18.07;;
48076;SDS011;33854;57.708;12.008;2022-10-31T06:10:00;43.53;;;18.67;;
48076;SDS011;33854;57.708;12.008;2022-10-31T06:14:52;34.97;;;16.57;;
48076;SDS011;33854;57.708;12.008;2022-10-31T06:17:17;45.53;;;18.43;;
48076;SDS011;33854;57.708;12.008;2022-10-31T06:19:42;34.23;;;16.30;;
48076;SDS011;33854;57.708;12.008;2022-10-31T06:22:08;37.40;;;17.33;;
48076;SDS011;33854;57.708;12.008;2022-10-31T06:24:33;41.30;;;17.83;;
48076;SDS011;33854;57.708;12.008;2022-10-31T06:26:58;40.43;;;18.10;;
48076;SDS011;33854;57.708;12.008;2022-10-31T06:29:24;35.93;;;17.77;;
48076;SDS011;33854;57.708;12.008;2022-10-31T06:31:52;50.10;;;18.97;;
48076;SDS011;33854;57.708;12.008;2022-10-31T06:34:18;42.28;;;18.50;;
48076;SDS011;33854;57.708;12.008;2022-10-31T06:36:43;45.40;;;18.13;;
48076;SDS011;33854;57.708;12.008;2022-10-31T06:39:11;44.22;;;19.08;;
48076;SDS011;33854;57.708;12.008;2022-10-31T06:41:36;52.50;;;20.50;;
48076;SDS011;33854;57.708;12.008;2022-10-31T06:44:01;42.00;;;19.47;;
48076;SDS011;33854;57.708;12.008;2022-10-31T06:46:27;43.63;;;20.23;;
48076;SDS011;33854;57.708;12.008;2022-10-31T06:48:52;46.43;;;18.17;;
48076;SDS011;33854;57.708;12.008;2022-10-31T06:51:18;45.63;;;21.40;;
48076;SDS011;33854;57.708;12.008;2022-10-31T06:53:43;52.90;;;21.03;;
48076;SDS011;33854;57.708;12.008;2022-10-31T06:56:08;49.63;;;21.17;;
48076;SDS011;33854;57.708;12.008;2022-10-31T06:58:34;50.73;;;19.80;;
48076;SDS011;33854;57.708;12.008;2022-10-31T07:00:59;52.37;;;21.63;;
48076;SDS011;33854;57.708;12.008;2022-10-31T07:03:25;56.25;;;22.92;;
48076;SDS011;33854;57.708;12.008;2022-10-31T07:05:51;65.57;;;24.03;;
48076;SDS011;33854;57.708;12.008;2022-10-31T07:08:16;60.93;;;23.17;;
48076;SDS011;33854;57.708;12.008;2022-10-31T07:10:42;63.87;;;24.60;;
48076;SDS011;33854;57.708;12.008;2022-10-31T07:13:13;65.43;;;24.02;;
48076;SDS011;33854;57.708;12.008;2022-10-31T07:15:39;71.70;;;25.27;;
48076;SDS011;33854;57.708;12.008;2022-10-31T07:20:32;57.60;;;22.80;;
48076;SDS011;33854;57.708;12.008;2022-10-31T07:22:58;61.13;;;21.90;;
48076;SDS011;33854;57.708;12.008;2022-10-31T07:27:50;56.60;;;22.33;;
48076;SDS011;33854;57.708;12.008;2022-10-31T07:30:16;54.27;;;21.43;;
48076;SDS011;33854;57.708;12.008;2022-10-31T07:32:45;65.05;;;23.23;;
48076;SDS011;33854;57.708;12.008;2022-10-31T07:35:14;61.38;;;23.70;;
48076;SDS011;33854;57.708;12.008;2022-10-31T07:37:41;58.80;;;21.98;;
48076;SDS011;33854;57.708;12.008;2022-10-31T07:40:08;53.53;;;21.55;;
48076;SDS011;33854;57.708;12.008;2022-10-31T07:42:34;45.67;;;21.15;;
48076;SDS011;33854;57.708;12.008;2022-10-31T07:45:04;43.30;;;21.65;;
48076;SDS011;33854;57.708;12.008;2022-10-31T07:47:38;55.03;;;21.13;;
48076;SDS011;33854;57.708;12.008;2022-10-31T07:50:08;52.40;;;20.83;;
48076;SDS011;33854;57.708;12.008;2022-10-31T07:52:34;47.35;;;20.83;;
48076;SDS011;33854;57.708;12.008;2022-10-31T07:55:00;61.43;;;22.57;;
48076;SDS011;33854;57.708;12.008;2022-10-31T07:57:25;45.40;;;20.40;;
48076;SDS011;33854;57.708;12.008;2022-10-31T07:59:51;49.43;;;21.23;;
48076;SDS011;33854;57.708;12.008;2022-10-31T08:02:17;49.83;;;22.87;;
48076;SDS011;33854;57.708;12.008;2022-10-31T08:04:42;41.92;;;20.48;;
48076;SDS011;33854;57.708;12.008;2022-10-31T08:07:08;41.97;;;19.27;;
48076;SDS011;33854;57.708;12.008;2022-10-31T08:09:33;42.53;;;20.43;;
48076;SDS011;33854;57.708;12.008;2022-10-31T08:11:58;48.27;;;19.93;;
48076;SDS011;33854;57.708;12.008;2022-10-31T08:14:24;52.47;;;21.33;;
48076;SDS011;33854;57.708;12.008;2022-10-31T08:16:49;45.90;;;19.00;;
48076;SDS011;33854;57.708;12.008;2022-10-31T08:19:15;45.10;;;19.50;;
48076;SDS011;33854;57.708;12.008;2022-10-31T08:21:40;41.13;;;19.00;;
48076;SDS011;33854;57.708;12.008;2022-10-31T08:24:06;39.13;;;16.97;;
48076;SDS011;33854;57.708;12.008;2022-10-31T08:26:31;38.97;;;19.97;;
48076;SDS011;33854;57.708;12.008;2022-10-31T08:28:57;41.25;;;19.77;;
48076;SDS011;33854;57.708;12.008;2022-10-31T08:31:22;37.47;;;19.93;;
48076;SDS011;33854;57.708;12.008;2022-10-31T08:33:48;44.83;;;20.13;;
48076;SDS011;33854;57.708;12.008;2022-10-31T08:36:14;35.47;;;19.77;;
48076;SDS011;33854;57.708;12.008;2022-10-31T08:38:39;33.40;;;18.00;;
48076;SDS011;33854;57.708;12.008;2022-10-31T08:41:04;31.90;;;18.23;;
48076;SDS011;33854;57.708;12.008;2022-10-31T08:43:30;35.07;;;18.80;;
48076;SDS011;33854;57.708;12.008;2022-10-31T08:45:55;29.40;;;16.30;;
48076;SDS011;33854;57.708;12.008;2022-10-31T08:48:20;32.43;;;17.77;;
48076;SDS011;33854;57.708;12.008;2022-10-31T08:50:46;34.40;;;16.60;;
48076;SDS011;33854;57.708;12.008;2022-10-31T08:53:16;29.73;;;15.87;;
48076;SDS011;33854;57.708;12.008;2022-10-31T08:55:44;23.70;;;15.45;;
48076;SDS011;33854;57.708;12.008;2022-10-31T08:58:11;28.45;;;16.08;;
48076;SDS011;33854;57.708;12.008;2022-10-31T09:00:38;29.02;;;13.77;;
48076;SDS011;33854;57.708;12.008;2022-10-31T09:03:05;29.73;;;14.63;;
48076;SDS011;33854;57.708;12.008;2022-10-31T09:05:32;23.90;;;11.85;;
48076;SDS011;33854;57.708;12.008;2022-10-31T09:07:58;24.88;;;14.10;;
48076;SDS011;33854;57.708;12.008;2022-10-31T09:10:25;22.95;;;12.57;;
48076;SDS011;33854;57.708;12.008;2022-10-31T09:12:54;22.85;;;12.55;;
48076;SDS011;33854;57.708;12.008;2022-10-31T09:15:21;19.50;;;11.25;;
48076;SDS011;33854;57.708;12.008;2022-10-31T09:17:47;21.10;;;10.83;;
48076;SDS011;33854;57.708;12.008;2022-10-31T09:20:13;21.67;;;10.55;;
48076;SDS011;33854;57.708;12.008;2022-10-31T09:22:38;19.77;;;11.27;;
48076;SDS011;33854;57.708;12.008;2022-10-31T09:25:04;25.90;;;11.90;;
48076;SDS011;33854;57.708;12.008;2022-10-31T09:27:29;18.70;;;11.33;;
48076;SDS011;33854;57.708;12.008;2022-10-31T09:29:54;20.00;;;11.73;;
48076;SDS011;33854;57.708;12.008;2022-10-31T09:32:20;22.13;;;11.50;;
48076;SDS011;33854;57.708;12.008;2022-10-31T09:34:45;20.50;;;9.67;;
48076;SDS011;33854;57.708;12.008;2022-10-31T09:37:11;18.67;;;9.87;;
48076;SDS011;33854;57.708;12.008;2022-10-31T09:39:36;22.63;;;11.13;;
48076;SDS011;33854;57.708;12.008;2022-10-31T09:42:04;19.60;;;9.70;;
48076;SDS011;33854;57.708;12.008;2022-10-31T09:45:21;16.95;;;7.63;;
48076;SDS011;33854;57.708;12.008;2022-10-31T09:50:49;15.13;;;8.48;;
48076;SDS011;33854;57.708;12.008;2022-10-31T09:56:13;17.13;;;6.82;;
48076;SDS011;33854;57.708;12.008;2022-10-31T09:59:01;13.70;;;7.65;;
48076;SDS011;33854;57.708;12.008;2022-10-31T10:01:44;21.20;;;8.38;;
48076;SDS011;33854;57.708;12.008;2022-10-31T10:07:01;18.98;;;8.52;;
48076;SDS011;33854;57.708;12.008;2022-10-31T10:09:32;20.60;;;9.65;;
48076;SDS011;33854;57.708;12.008;2022-10-31T10:12:01;18.73;;;10.00;;
48076;SDS011;33854;57.708;12.008;2022-10-31T10:14:50;21.80;;;8.90;;
48076;SDS011;33854;57.708;12.008;2022-10-31T10:17:28;25.85;;;8.98;;
48076;SDS011;33854;57.708;12.008;2022-10-31T10:20:17;17.90;;;9.40;;
48076;SDS011;33854;57.708;12.008;2022-10-31T10:25:55;20.95;;;9.48;;
48076;SDS011;33854;57.708;12.008;2022-10-31T10:28:35;19.52;;;9.38;;
48076;SDS011;33854;57.708;12.008;2022-10-31T10:31:37;15.35;;;7.78;;
48076;SDS011;33854;57.708;12.008;2022-10-31T10:34:06;21.58;;;8.50;;
48076;SDS011;33854;57.708;12.008;2022-10-31T10:36:47;16.65;;;7.97;;
48076;SDS011;33854;57.708;12.008;2022-10-31T10:39:23;15.73;;;7.38;;
48076;SDS011;33854;57.708;12.008;2022-10-31T10:42:13;21.45;;;8.07;;
48076;SDS011;33854;57.708;12.008;2022-10-31T10:44:58;14.63;;;6.45;;
48076;SDS011;33854;57.708;12.008;2022-10-31T10:47:44;15.18;;;6.35;;
48076;SDS011;33854;57.708;12.008;2022-10-31T10:50:34;14.77;;;6.13;;
48076;SDS011;33854;57.708;12.008;2022-10-31T10:56:18;12.75;;;6.15;;
48076;SDS011;33854;57.708;12.008;2022-10-31T10:58:56;12.85;;;5.63;;
48076;SDS011;33854;57.708;12.008;2022-10-31T11:01:22;14.05;;;5.88;;
48076;SDS011;33854;57.708;12.008;2022-10-31T11:03:48;17.57;;;7.00;;
48076;SDS011;33854;57.708;12.008;2022-10-31T11:06:18;12.80;;;4.32;;
48076;SDS011;33854;57.708;12.008;2022-10-31T11:08:47;18.40;;;5.97;;
48076;SDS011;33854;57.708;12.008;2022-10-31T11:11:31;9.75;;;4.65;;
48076;SDS011;33854;57.708;12.008;2022-10-31T11:14:00;11.85;;;4.43;;
48076;SDS011;33854;57.708;12.008;2022-10-31T11:16:38;13.25;;;3.75;;
48076;SDS011;33854;57.708;12.008;2022-10-31T11:19:06;11.05;;;4.30;;
48076;SDS011;33854;57.708;12.008;2022-10-31T11:21:41;11.45;;;4.60;;
48076;SDS011;33854;57.708;12.008;2022-10-31T11:26:36;14.55;;;4.07;;
48076;SDS011;33854;57.708;12.008;2022-10-31T11:29:03;12.68;;;4.97;;
48076;SDS011;33854;57.708;12.008;2022-10-31T11:31:30;14.35;;;3.17;;
48076;SDS011;33854;57.708;12.008;2022-10-31T11:34:01;11.20;;;3.13;;
48076;SDS011;33854;57.708;12.008;2022-10-31T11:36:37;7.78;;;2.72;;
48076;SDS011;33854;57.708;12.008;2022-10-31T11:39:12;7.57;;;2.63;;
48076;SDS011;33854;57.708;12.008;2022-10-31T11:41:48;9.90;;;2.47;;
48076;SDS011;33854;57.708;12.008;2022-10-31T11:44:19;11.55;;;2.83;;
48076;SDS011;33854;57.708;12.008;2022-10-31T11:46:51;10.05;;;2.33;;
48076;SDS011;33854;57.708;12.008;2022-10-31T11:51:54;9.77;;;2.67;;
48076;SDS011;33854;57.708;12.008;2022-10-31T11:54:23;6.95;;;1.88;;
48076;SDS011;33854;57.708;12.008;2022-10-31T11:56:52;14.43;;;2.30;;
48076;SDS011;33854;57.708;12.008;2022-10-31T11:59:21;10.70;;;2.10;;
48076;SDS011;33854;57.708;12.008;2022-10-31T12:01:50;9.02;;;2.10;;
48076;SDS011;33854;57.708;12.008;2022-10-31T12:04:17;8.95;;;2.35;;
48076;SDS011;33854;57.708;12.008;2022-10-31T12:06:44;16.83;;;2.60;;
48076;SDS011;33854;57.708;12.008;2022-10-31T12:09:21;12.45;;;2.65;;
48076;SDS011;33854;57.708;12.008;2022-10-31T12:17:45;9.10;;;2.65;;
48076;SDS011;33854;57.708;12.008;2022-10-31T12:37:00;12.43;;;2.17;;
48076;SDS011;33854;57.708;12.008;2022-10-31T12:39:50;10.95;;;2.22;;
48076;SDS011;33854;57.708;12.008;2022-10-31T12:45:18;6.15;;;2.15;;
48076;SDS011;33854;57.708;12.008;2022-10-31T12:50:52;9.57;;;2.13;;
48076;SDS011;33854;57.708;12.008;2022-10-31T12:59:42;11.35;;;1.88;;
48076;SDS011;33854;57.708;12.008;2022-10-31T13:07:27;12.30;;;2.17;;
48076;SDS011;33854;57.708;12.008;2022-10-31T13:12:37;7.40;;;2.08;;
48076;SDS011;33854;57.708;12.008;2022-10-31T13:15:12;11.88;;;2.03;;
48076;SDS011;33854;57.708;12.008;2022-10-31T13:17:54;10.35;;;2.65;;
48076;SDS011;33854;57.708;12.008;2022-10-31T13:20:29;9.13;;;2.15;;
48076;SDS011;33854;57.708;12.008;2022-10-31T13:23:20;12.10;;;2.03;;
48076;SDS011;33854;57.708;12.008;2022-10-31T13:26:00;9.57;;;2.15;;
48076;SDS011;33854;57.708;12.008;2022-10-31T13:28:37;11.18;;;2.05;;
48076;SDS011;33854;57.708;12.008;2022-10-31T13:31:04;9.57;;;1.88;;
48076;SDS011;33854;57.708;12.008;2022-10-31T13:33:31;9.50;;;2.57;;
48076;SDS011;33854;57.708;12.008;2022-10-31T13:44:13;15.65;;;3.33;;
48076;SDS011;33854;57.708;12.008;2022-10-31T13:46:45;11.38;;;3.20;;
48076;SDS011;33854;57.708;12.008;2022-10-31T13:51:50;11.75;;;2.75;;
48076;SDS011;33854;57.708;12.008;2022-10-31T13:54:31;18.20;;;3.10;;
48076;SDS011;33854;57.708;12.008;2022-10-31T13:56:58;11.35;;;3.08;;
48076;SDS011;33854;57.708;12.008;2022-10-31T13:59:25;13.75;;;4.55;;
48076;SDS011;33854;57.708;12.008;2022-10-31T14:01:54;12.48;;;2.97;;
48076;SDS011;33854;57.708;12.008;2022-10-31T14:07:08;14.90;;;3.53;;
48076;SDS011;33854;57.708;12.008;2022-10-31T14:12:46;10.63;;;3.03;;
48076;SDS011;33854;57.708;12.008;2022-10-31T14:15:23;16.05;;;3.70;;
48076;SDS011;33854;57.708;12.008;2022-10-31T14:20:42;12.27;;;3.63;;
48076;SDS011;33854;57.708;12.008;2022-10-31T14:25:52;15.77;;;3.60;;
48076;SDS011;33854;57.708;12.008;2022-10-31T14:28:19;20.23;;;3.83;;
48076;SDS011;33854;57.708;12.008;2022-10-31T14:30:53;16.70;;;3.95;;
48076;SDS011;33854;57.708;12.008;2022-10-31T14:33:21;18.80;;;5.43;;
48076;SDS011;33854;57.708;12.008;2022-10-31T14:38:55;11.60;;;4.53;;
48076;SDS011;33854;57.708;12.008;2022-10-31T14:41:47;21.65;;;6.90;;
48076;SDS011;33854;57.708;12.008;2022-10-31T14:45:11;15.98;;;7.25;;
48076;SDS011;33854;57.708;12.008;2022-10-31T14:52:28;14.85;;;6.32;;
48076;SDS011;33854;57.708;12.008;2022-10-31T14:54:54;17.37;;;6.47;;
48076;SDS011;33854;57.708;12.008;2022-10-31T14:57:25;17.10;;;6.78;;
48076;SDS011;33854;57.708;12.008;2022-10-31T14:59:55;20.58;;;8.40;;
48076;SDS011;33854;57.708;12.008;2022-10-31T15:02:27;15.98;;;7.10;;
48076;SDS011;33854;57.708;12.008;2022-10-31T15:04:59;16.95;;;8.35;;
48076;SDS011;33854;57.708;12.008;2022-10-31T15:07:27;21.67;;;7.47;;
48076;SDS011;33854;57.708;12.008;2022-10-31T15:09:56;15.87;;;7.57;;
48076;SDS011;33854;57.708;12.008;2022-10-31T15:12:28;20.63;;;7.32;;
48076;SDS011;33854;57.708;12.008;2022-10-31T15:14:56;14.10;;;7.43;;
48076;SDS011;33854;57.708;12.008;2022-10-31T15:17:23;22.33;;;7.22;;
48076;SDS011;33854;57.708;12.008;2022-10-31T15:22:17;16.00;;;6.53;;
48076;SDS011;33854;57.708;12.008;2022-10-31T15:24:44;9.88;;;5.95;;
48076;SDS011;33854;57.708;12.008;2022-10-31T15:27:14;16.38;;;6.05;;
48076;SDS011;33854;57.708;12.008;2022-10-31T15:29:49;24.30;;;5.70;;
48076;SDS011;33854;57.708;12.008;2022-10-31T15:32:22;25.98;;;6.18;;
48076;SDS011;33854;57.708;12.008;2022-10-31T15:34:50;21.15;;;6.05;;
48076;SDS011;33854;57.708;12.008;2022-10-31T15:37:18;30.30;;;7.25;;
48076;SDS011;33854;57.708;12.008;2022-10-31T15:39:45;20.00;;;7.70;;
48076;SDS011;33854;57.708;12.008;2022-10-31T15:44:59;21.35;;;7.63;;
48076;SDS011;33854;57.708;12.008;2022-10-31T15:47:29;19.80;;;8.18;;
48076;SDS011;33854;57.708;12.008;2022-10-31T15:49:57;20.45;;;7.80;;
48076;SDS011;33854;57.708;12.008;2022-10-31T15:52:43;21.45;;;8.00;;
48076;SDS011;33854;57.708;12.008;2022-10-31T15:57:41;25.77;;;8.38;;
48076;SDS011;33854;57.708;12.008;2022-10-31T16:00:22;49.50;;;9.50;;
48076;SDS011;33854;57.708;12.008;2022-10-31T16:05:36;24.25;;;9.00;;
48076;SDS011;33854;57.708;12.008;2022-10-31T16:08:04;29.40;;;10.25;;
48076;SDS011;33854;57.708;12.008;2022-10-31T16:10:46;22.90;;;11.35;;
48076;SDS011;33854;57.708;12.008;2022-10-31T16:13:11;23.93;;;10.57;;
48076;SDS011;33854;57.708;12.008;2022-10-31T16:15:37;29.40;;;11.47;;
48076;SDS011;33854;57.708;12.008;2022-10-31T16:18:02;32.77;;;10.53;;
48076;SDS011;33854;57.708;12.008;2022-10-31T16:20:28;30.40;;;11.00;;
48076;SDS011;33854;57.708;12.008;2022-10-31T16:22:56;26.00;;;11.90;;
48076;SDS011;33854;57.708;12.008;2022-10-31T16:25:27;31.70;;;11.98;;
48076;SDS011;33854;57.708;12.008;2022-10-31T16:27:58;26.38;;;11.60;;
48076;SDS011;33854;57.708;12.008;2022-10-31T16:30:41;33.78;;;12.30;;
48076;SDS011;33854;57.708;12.008;2022-10-31T16:35:56;27.48;;;12.40;;
48076;SDS011;33854;57.708;12.008;2022-10-31T16:40:48;27.08;;;12.02;;
48076;SDS011;33854;57.708;12.008;2022-10-31T16:43:15;28.98;;;12.45;;
48076;SDS011;33854;57.708;12.008;2022-10-31T16:46:00;30.17;;;12.93;;
48076;SDS011;33854;57.708;12.008;2022-10-31T16:48:26;31.20;;;12.43;;
48076;SDS011;33854;57.708;12.008;2022-10-31T16:50:51;26.60;;;11.93;;
48076;SDS011;33854;57.708;12.008;2022-10-31T16:53:17;22.60;;;11.95;;
48076;SDS011;33854;57.708;12.008;2022-10-31T16:55:47;25.17;;;11.97;;